Time;durP1;ratioP1;P1;durP2;ratioP2;P2;SDS_P1;SDS_P2;PMS_P1;PMS_P2;Temp;Humidity;BMP_temperature;BMP_pressure;BME280_temperature;BME280_humidity;BME280_pressure;Samples;Min_cycle;Max_cycle;Signal;HPM_P1;HPM_P2
2022/01/05 00:00:33;;;;;;;2.45;0.98;;;;;;;11.47;49.32;99935.50;5078332;28;20568;-57
2022/01/05 00:02:58;;;;;;;3.55;1.40;;;;;;;11.45;49.83;99937.47;5096355;28;20024;-57
2022/01/05 00:05:24;;;;;;;1.27;0.82;;;;;;;11.49;50.05;99949.59;5096259;28;20423;-57
2022/01/05 00:07:49;;;;;;;1.33;0.95;;;;;;;11.48;50.52;99951.44;5096164;28;20423;-56
2022/01/05 00:10:15;;;;;;;1.92;1.05;;;;;;;11.47;50.37;99963.16;5095930;28;20024;-57
2022/01/05 00:12:40;;;;;;;5.32;1.00;;;;;;;11.47;49.90;99957.78;5096268;28;20107;-58
2022/01/05 00:15:06;;;;;;;7.00;1.10;;;;;;;11.49;49.95;99952.28;5078273;28;20028;-57
2022/01/05 00:17:32;;;;;;;2.58;1.00;;;;;;;11.47;49.79;99963.16;5077915;28;20107;-57
2022/01/05 00:19:57;;;;;;;2.22;1.17;;;;;;;11.47;49.74;99963.16;5095714;28;20054;-57
2022/01/05 00:22:23;;;;;;;3.03;0.57;;;;;;;11.48;49.69;99972.88;5095949;28;20028;-57
2022/01/05 00:24:48;;;;;;;0.90;0.90;;;;;;;11.49;49.90;99969.22;5095526;28;20020;-57
2022/01/05 00:27:14;;;;;;;2.47;1.00;;;;;;;11.50;50.02;99968.19;5095584;28;20024;-57
2022/01/05 00:29:39;;;;;;;1.42;1.15;;;;;;;11.52;49.96;99970.75;5096197;28;20032;-57
2022/01/05 00:32:05;;;;;;;3.72;1.00;;;;;;;11.56;49.38;99967.56;5095313;28;20039;-57
2022/01/05 00:34:30;;;;;;;1.73;1.00;;;;;;;11.56;50.39;99962.22;5076792;28;20020;-57
2022/01/05 00:36:56;;;;;;;1.83;1.17;;;;;;;11.59;49.24;99969.09;5094999;28;20127;-57
2022/01/05 00:39:21;;;;;;;4.47;1.20;;;;;;;11.61;49.89;99967.94;5077014;28;20096;-56
2022/01/05 00:41:47;;;;;;;4.97;1.30;;;;;;;11.62;50.03;99971.47;5097720;28;20499;-57
2022/01/05 00:44:12;;;;;;;2.60;1.08;;;;;;;11.61;49.23;99967.13;5078564;28;20023;-57
2022/01/05 00:46:38;;;;;;;2.03;1.10;;;;;;;11.63;50.19;99973.16;5093928;28;20028;-57
2022/01/05 00:49:03;;;;;;;2.30;1.00;;;;;;;11.64;50.00;99969.50;5093551;28;20022;-57
2022/01/05 00:51:29;;;;;;;1.40;1.30;;;;;;;11.61;49.79;99965.25;5093899;28;20388;-56
2022/01/05 00:53:54;;;;;;;1.23;0.77;;;;;;;11.66;49.94;99967.50;5093635;28;20028;-57
2022/01/05 00:56:19;;;;;;;3.33;1.45;;;;;;;11.67;50.23;99970.00;5094304;28;20380;-57
2022/01/05 00:58:45;;;;;;;7.05;1.27;;;;;;;11.67;49.76;99974.50;5093050;28;20012;-57
2022/01/05 01:01:10;;;;;;;2.63;0.93;;;;;;;11.68;50.00;99968.16;5075476;28;20112;-58
2022/01/05 01:03:36;;;;;;;5.38;1.13;;;;;;;11.67;49.84;99964.63;5093644;28;20131;-57
2022/01/05 01:06:02;;;;;;;5.50;1.58;;;;;;;11.67;49.92;99961.94;5075649;28;20054;-56
2022/01/05 01:08:27;;;;;;;3.22;1.10;;;;;;;11.66;49.38;99965.66;5076117;28;20107;-57
2022/01/05 01:10:53;;;;;;;5.43;0.90;;;;;;;11.67;49.73;99974.50;5095025;28;20031;-57
2022/01/05 01:13:19;;;;;;;4.85;1.25;;;;;;;11.66;50.38;99962.13;5077739;28;20024;-57
2022/01/05 01:15:49;;;;;;;10.40;1.63;;;;;;;11.67;50.00;99974.50;5095621;28;20061;-57
2022/01/05 01:18:15;;;;;;;3.22;0.85;;;;;;;11.70;49.55;99976.09;5095620;28;20020;-57
2022/01/05 01:20:41;;;;;;;1.75;1.27;;;;;;;11.71;49.51;99980.44;5095472;28;20028;-57
2022/01/05 01:23:06;;;;;;;5.57;1.30;;;;;;;11.70;49.35;99984.97;5095985;28;20500;-57
2022/01/05 01:25:32;;;;;;;7.00;1.40;;;;;;;11.68;49.81;99978.91;5077787;28;20024;-57
2022/01/05 01:27:57;;;;;;;6.07;1.20;;;;;;;11.66;50.17;99975.53;5078013;28;20469;-57
2022/01/05 01:30:23;;;;;;;5.13;0.93;;;;;;;11.62;49.87;99975.00;5094301;28;20488;-57
2022/01/05 01:32:48;;;;;;;4.43;0.90;;;;;;;11.65;50.03;99981.88;5095061;28;20374;-56
2022/01/05 01:35:14;;;;;;;4.07;1.05;;;;;;;11.64;49.54;99990.97;5095137;28;20035;-57
2022/01/05 01:37:39;;;;;;;4.55;1.40;;;;;;;11.63;49.58;99987.44;5095203;28;20040;-57
2022/01/05 01:40:06;;;;;;;2.30;0.73;;;;;;;11.62;49.84;99988.41;5095471;28;20480;-58
2022/01/05 01:42:32;;;;;;;2.90;1.13;;;;;;;11.61;49.67;99991.25;5095659;28;20034;-55
2022/01/05 01:44:57;;;;;;;2.58;1.08;;;;;;;11.60;50.11;99990.41;5076936;28;20024;-57
2022/01/05 01:47:22;;;;;;;4.03;0.93;;;;;;;11.59;49.90;99988.72;5074714;28;20026;-57
2022/01/05 01:49:48;;;;;;;3.13;1.55;;;;;;;11.58;49.68;99995.09;5092912;28;20579;-57
2022/01/05 01:52:13;;;;;;;7.82;1.40;;;;;;;11.59;49.90;100002.13;5092469;28;20016;-56
2022/01/05 01:54:39;;;;;;;3.47;1.08;;;;;;;11.52;50.06;99989.50;5093187;28;20036;-58
2022/01/05 01:57:05;;;;;;;6.93;1.10;;;;;;;11.58;49.81;100013.03;5074902;28;20028;-57
2022/01/05 01:59:30;;;;;;;2.20;0.85;;;;;;;11.55;50.26;100002.63;5074926;28;20027;-57
2022/01/05 02:01:56;;;;;;;4.85;1.17;;;;;;;11.51;49.80;100007.44;5092905;28;20024;-57
2022/01/05 02:04:21;;;;;;;6.50;2.05;;;;;;;11.52;49.93;100019.00;5093074;28;20020;-57
2022/01/05 02:06:47;;;;;;;8.40;1.60;;;;;;;11.50;49.91;100016.47;5092796;28;20046;-57
2022/01/05 02:09:13;;;;;;;3.25;1.33;;;;;;;11.48;50.06;100014.94;5092678;28;20020;-57
2022/01/05 02:11:39;;;;;;;7.60;1.70;;;;;;;11.47;49.96;100016.78;5093087;28;20069;-57
2022/01/05 02:14:05;;;;;;;2.40;1.30;;;;;;;11.46;48.95;100019.63;5074818;28;20047;-57
2022/01/05 02:16:32;;;;;;;9.02;1.45;;;;;;;11.44;49.50;100027.00;5093844;28;20418;-57
2022/01/05 02:18:58;;;;;;;3.40;1.05;;;;;;;11.42;49.58;100019.09;5093877;28;20051;-58
2022/01/05 02:21:31;;;;;;;9.02;1.70;;;;;;;11.39;49.54;100018.56;5093644;28;20426;-57
2022/01/05 02:23:57;;;;;;;8.88;1.33;;;;;;;11.37;49.59;100021.38;5075954;28;20095;-57
2022/01/05 02:26:22;;;;;;;8.07;1.42;;;;;;;11.30;49.45;100014.97;5059224;28;20560;-57
2022/01/05 02:28:49;;;;;;;6.45;1.08;;;;;;;11.36;49.32;100027.75;5093710;28;20025;-57
2022/01/05 02:31:14;;;;;;;5.28;1.40;;;;;;;11.34;49.39;100026.22;5094066;28;20028;-58
2022/01/05 02:33:42;;;;;;;4.65;1.00;;;;;;;11.30;49.35;100016.81;5093581;28;20487;-57
2022/01/05 02:36:11;;;;;;;3.80;1.23;;;;;;;11.32;49.50;100029.06;5093835;28;20107;-58
2022/01/05 02:38:36;;;;;;;2.67;1.25;;;;;;;11.30;49.22;100031.06;5093276;28;20052;-56
2022/01/05 02:41:07;;;;;;;4.13;0.80;;;;;;;11.29;49.63;100036.56;5075466;28;20031;-57
2022/01/05 02:43:34;;;;;;;6.70;1.45;;;;;;;11.27;49.42;100042.09;5095407;28;20020;-57
2022/01/05 02:45:59;;;;;;;9.75;0.98;;;;;;;11.22;49.16;100039.03;5097704;28;20016;-57
2022/01/05 02:48:25;;;;;;;9.10;2.40;;;;;;;11.21;49.23;100041.84;5079661;28;20028;-57
2022/01/05 02:50:50;;;;;;;3.65;1.05;;;;;;;11.18;49.82;100059.06;5097551;28;20020;-55
2022/01/05 02:53:15;;;;;;;10.25;1.40;;;;;;;11.15;48.74;100053.16;5079370;28;20052;-57
2022/01/05 02:55:41;;;;;;;8.32;1.20;;;;;;;11.11;49.33;100056.16;5097369;28;20020;-57
2022/01/05 02:58:06;;;;;;;5.20;1.70;;;;;;;11.09;49.25;100063.50;5097328;28;20035;-57
2022/01/05 03:00:32;;;;;;;6.22;2.03;;;;;;;11.08;49.77;100077.88;5097426;28;20055;-57
2022/01/05 03:02:57;;;;;;;3.85;1.15;;;;;;;11.09;49.63;100071.53;5097644;28;20044;-55
2022/01/05 03:05:22;;;;;;;6.30;1.98;;;;;;;11.07;49.99;100073.53;5097470;28;20035;-55
2022/01/05 03:07:50;;;;;;;5.38;1.30;;;;;;;11.07;49.66;100084.25;5097545;28;20016;-55
2022/01/05 03:10:16;;;;;;;2.35;0.85;;;;;;;11.07;48.83;100078.91;5097490;28;20078;-55
2022/01/05 03:12:42;;;;;;;2.03;1.10;;;;;;;11.04;48.97;100083.72;5097141;28;20028;-55
2022/01/05 03:15:09;;;;;;;4.70;1.02;;;;;;;11.02;49.40;100080.34;5097447;28;20357;-54
2022/01/05 03:17:34;;;;;;;4.18;0.82;;;;;;;10.98;49.24;100084.31;5079289;28;20020;-55
2022/01/05 03:19:59;;;;;;;3.92;1.35;;;;;;;10.97;48.82;100088.00;5097016;28;20020;-55
2022/01/05 03:22:25;;;;;;;5.80;1.27;;;;;;;10.94;49.14;100094.47;5096795;28;20503;-55
2022/01/05 03:24:50;;;;;;;4.13;1.10;;;;;;;10.90;48.96;100097.63;5096856;28;20024;-55
2022/01/05 03:27:15;;;;;;;4.65;1.27;;;;;;;10.84;48.75;100099.06;5096901;28;20024;-55
2022/01/05 03:29:41;;;;;;;15.63;1.30;;;;;;;10.83;48.80;100102.72;5078906;28;20075;-55
2022/01/05 03:32:07;;;;;;;5.80;1.35;;;;;;;10.82;48.77;100106.41;5078776;28;20039;-55
2022/01/05 03:34:33;;;;;;;5.00;0.90;;;;;;;10.80;49.22;100113.75;5078743;28;20028;-55
2022/01/05 03:36:59;;;;;;;1.65;0.90;;;;;;;10.79;49.17;100127.28;5096596;28;20044;-55
2022/01/05 03:39:26;;;;;;;9.05;1.45;;;;;;;10.75;49.07;100126.72;5096717;28;20027;-55
2022/01/05 03:41:51;;;;;;;9.32;1.20;;;;;;;10.72;48.38;100121.66;5096857;28;20449;-55
2022/01/05 03:44:16;;;;;;;6.47;2.78;;;;;;;10.76;49.20;100133.78;5096911;28;20055;-56
2022/01/05 03:46:42;;;;;;;4.07;1.08;;;;;;;10.75;49.03;100142.78;5096782;28;20473;-55
2022/01/05 03:49:07;;;;;;;2.90;1.13;;;;;;;10.68;48.96;100141.72;5078505;28;20081;-55
2022/01/05 03:51:32;;;;;;;3.28;1.10;;;;;;;10.67;48.79;100150.72;5078380;28;20024;-54
2022/01/05 03:53:58;;;;;;;2.25;1.27;;;;;;;10.66;48.91;100154.41;5096374;28;20031;-55
2022/01/05 03:56:23;;;;;;;8.10;1.33;;;;;;;10.64;49.06;100155.53;5096416;28;20051;-55
2022/01/05 03:58:49;;;;;;;4.07;1.55;;;;;;;10.61;48.68;100156.66;5096172;28;20031;-55
2022/01/05 04:01:14;;;;;;;10.90;1.45;;;;;;;10.60;48.80;100165.69;5096781;28;20081;-55
2022/01/05 04:03:39;;;;;;;9.57;1.20;;;;;;;10.59;49.32;100164.00;5096256;28;20031;-55
2022/01/05 04:06:06;;;;;;;9.00;1.95;;;;;;;10.59;48.95;100161.31;5095983;28;20028;-55
2022/01/05 04:08:31;;;;;;;5.88;1.15;;;;;;;10.59;49.22;100161.31;5096058;28;20052;-55
2022/01/05 04:10:57;;;;;;;5.82;1.27;;;;;;;10.60;49.11;100165.69;5078228;28;20099;-55
2022/01/05 04:13:22;;;;;;;3.47;1.27;;;;;;;10.58;48.68;100167.66;5096094;28;20456;-55
2022/01/05 04:15:48;;;;;;;9.15;1.60;;;;;;;10.57;49.02;100166.00;5096220;28;20099;-55
2022/01/05 04:18:13;;;;;;;4.85;1.17;;;;;;;10.54;48.74;100168.97;5096224;28;20447;-55
2022/01/05 04:20:39;;;;;;;4.47;1.20;;;;;;;10.54;48.94;100166.28;5095998;28;20016;-56
2022/01/05 04:23:04;;;;;;;6.15;1.38;;;;;;;10.50;48.69;100165.72;5096121;28;20024;-55
2022/01/05 04:25:31;;;;;;;8.82;1.50;;;;;;;10.44;48.99;100165.47;5096194;28;20380;-56
2022/01/05 04:27:56;;;;;;;6.43;1.30;;;;;;;10.48;48.78;100180.25;5077769;28;20115;-55
2022/01/05 04:30:22;;;;;;;8.88;1.45;;;;;;;10.47;48.45;100184.75;5095901;28;20108;-55
2022/01/05 04:32:47;;;;;;;11.27;1.45;;;;;;;10.45;48.86;100180.53;5077702;28;20122;-55
2022/01/05 04:35:14;;;;;;;2.88;1.08;;;;;;;10.41;48.42;100184.50;5095751;28;20027;-55
2022/01/05 04:37:41;;;;;;;4.00;1.10;;;;;;;10.37;48.70;100180.41;5095367;28;20420;-55
2022/01/05 04:40:08;;;;;;;2.13;0.90;;;;;;;10.35;49.85;100175.22;5095620;28;20103;-55
2022/01/05 04:42:33;;;;;;;7.25;1.60;;;;;;;10.36;48.48;100178.72;5095373;28;20028;-55
2022/01/05 04:44:59;;;;;;;7.90;2.05;;;;;;;10.32;49.20;100182.69;5095492;28;20430;-55
2022/01/05 04:47:24;;;;;;;4.57;1.48;;;;;;;10.32;48.61;100193.38;5077177;28;20498;-55
2022/01/05 04:49:50;;;;;;;7.32;1.38;;;;;;;10.31;48.92;100189.84;5095043;28;20051;-55
2022/01/05 04:52:15;;;;;;;9.95;2.42;;;;;;;10.30;48.79;100195.38;5095462;28;20024;-55
2022/01/05 04:54:40;;;;;;;10.32;2.65;;;;;;;10.30;48.65;100206.88;5095600;28;20107;-55
2022/01/05 04:57:06;;;;;;;7.43;1.23;;;;;;;10.28;48.57;100197.31;5095150;28;20024;-55
2022/01/05 04:59:32;;;;;;;6.63;1.40;;;;;;;10.24;49.10;100191.44;5095322;28;20024;-55
2022/01/05 05:01:58;;;;;;;6.30;1.77;;;;;;;10.23;48.55;100188.88;5095215;28;20502;-55
2022/01/05 05:04:23;;;;;;;4.47;1.60;;;;;;;10.27;48.66;100201.00;5076889;28;20024;-55
2022/01/05 05:06:49;;;;;;;2.00;1.08;;;;;;;10.26;48.73;100200.16;5076517;28;20389;-54
2022/01/05 05:09:15;;;;;;;6.20;1.30;;;;;;;10.24;48.42;100201.28;5095117;28;20469;-55
2022/01/05 05:11:41;;;;;;;14.73;2.47;;;;;;;10.22;48.73;100203.22;5094815;28;20027;-55
2022/01/05 05:14:06;;;;;;;10.43;1.30;;;;;;;10.24;48.67;100206.63;5094930;28;20073;-56
2022/01/05 05:16:31;;;;;;;7.50;1.58;;;;;;;10.24;48.68;100210.16;5095456;28;20028;-55
2022/01/05 05:18:57;;;;;;;4.30;1.25;;;;;;;10.22;48.25;100197.88;5095051;28;20093;-55
2022/01/05 05:21:22;;;;;;;7.05;1.38;;;;;;;10.22;48.79;100203.22;5076885;28;20039;-55
2022/01/05 05:23:47;;;;;;;3.63;1.52;;;;;;;10.22;48.43;100198.72;5095188;28;20499;-55
2022/01/05 05:26:13;;;;;;;3.22;1.45;;;;;;;10.20;48.65;100202.53;5094895;28;20054;-55
2022/01/05 05:28:38;;;;;;;4.63;1.60;;;;;;;10.16;48.25;100206.50;5095180;28;20028;-55
2022/01/05 05:31:03;;;;;;;4.97;1.75;;;;;;;10.12;48.37;100203.22;5076756;28;20110;-54
2022/01/05 05:33:29;;;;;;;9.65;2.47;;;;;;;10.11;48.34;100214.06;5094324;28;20028;-55
2022/01/05 05:35:54;;;;;;;6.78;1.20;;;;;;;10.08;48.42;100219.72;5076631;28;20055;-55
2022/01/05 05:38:20;;;;;;;9.05;1.20;;;;;;;10.06;48.37;100219.84;5094521;28;20048;-56
2022/01/05 05:40:45;;;;;;;5.63;1.52;;;;;;;10.03;48.96;100213.91;5076706;28;20030;-55
2022/01/05 05:43:11;;;;;;;9.73;1.20;;;;;;;10.04;48.67;100212.94;5076551;28;20035;-55
2022/01/05 05:45:37;;;;;;;9.98;1.63;;;;;;;10.02;48.65;100212.25;5094586;28;20024;-54
2022/01/05 05:48:02;;;;;;;7.78;1.30;;;;;;;10.01;48.68;100218.56;5076073;28;20023;-55
2022/01/05 05:50:29;;;;;;;10.55;1.98;;;;;;;9.99;48.73;100221.41;5094651;28;20078;-55
2022/01/05 05:52:54;;;;;;;6.03;1.33;;;;;;;9.99;48.64;100216.06;5094580;28;20032;-55
2022/01/05 05:55:20;;;;;;;3.00;0.90;;;;;;;10.00;48.48;100225.75;5094542;28;20028;-55
2022/01/05 05:57:45;;;;;;;5.35;1.20;;;;;;;10.01;48.66;100230.13;5076678;28;20043;-55
2022/01/05 06:00:11;;;;;;;5.88;1.27;;;;;;;10.00;47.86;100232.94;5094653;28;20016;-55
2022/01/05 06:02:37;;;;;;;11.07;1.45;;;;;;;9.99;48.42;100228.59;5094222;28;20046;-54
2022/01/05 06:05:02;;;;;;;6.72;1.55;;;;;;;9.95;48.67;100234.22;5059909;28;20020;-55
2022/01/05 06:07:28;;;;;;;8.20;1.95;;;;;;;9.93;48.29;100233.50;5094345;28;20024;-55
2022/01/05 06:09:53;;;;;;;7.88;1.05;;;;;;;9.92;49.14;100238.97;5094181;28;20024;-55
2022/01/05 06:12:18;;;;;;;7.25;1.10;;;;;;;9.89;48.79;100233.91;5094095;28;20074;-55
2022/01/05 06:14:44;;;;;;;2.95;1.70;;;;;;;9.88;48.65;100249.09;5075752;28;20052;-55
2022/01/05 06:17:09;;;;;;;7.97;1.25;;;;;;;9.87;48.80;100246.59;5093831;28;20028;-55
2022/01/05 06:19:35;;;;;;;8.63;1.52;;;;;;;9.89;48.79;100256.16;5094175;28;20024;-55
2022/01/05 06:22:00;;;;;;;2.83;1.27;;;;;;;9.91;49.14;100251.50;5094101;28;20024;-55
2022/01/05 06:24:25;;;;;;;7.85;1.35;;;;;;;9.89;48.64;100256.16;5094099;28;20028;-54
2022/01/05 06:26:52;;;;;;;2.35;1.15;;;;;;;9.89;48.72;100255.31;5093967;28;20082;-55
2022/01/05 06:29:18;;;;;;;4.20;1.02;;;;;;;9.87;48.36;100252.78;5094129;28;20445;-55
2022/01/05 06:31:43;;;;;;;6.00;1.25;;;;;;;9.83;48.44;100272.75;5094644;28;20027;-55
2022/01/05 06:34:09;;;;;;;6.05;1.20;;;;;;;9.82;48.71;100271.09;5093946;28;20028;-55
2022/01/05 06:36:34;;;;;;;9.23;1.25;;;;;;;9.80;48.65;100275.69;5093931;28;20506;-55
2022/01/05 06:39:00;;;;;;;10.70;1.83;;;;;;;9.78;48.89;100280.34;5093989;28;20543;-55
2022/01/05 06:41:25;;;;;;;13.65;1.35;;;;;;;9.79;49.35;100276.72;5093912;28;20036;-55
2022/01/05 06:43:51;;;;;;;9.15;1.60;;;;;;;9.81;48.68;100284.59;5093896;28;20109;-55
2022/01/05 06:46:16;;;;;;;5.00;1.35;;;;;;;9.81;48.79;100293.47;5094094;28;20024;-55
2022/01/05 06:48:41;;;;;;;12.68;1.60;;;;;;;9.87;48.78;100292.91;5093863;28;20036;-55
2022/01/05 06:51:07;;;;;;;4.68;1.02;;;;;;;9.88;48.43;100291.91;5093944;28;20085;-55
2022/01/05 06:53:32;;;;;;;11.88;1.35;;;;;;;9.95;49.12;100302.91;5058949;28;20054;-55
2022/01/05 06:55:57;;;;;;;4.47;1.30;;;;;;;9.97;49.04;100302.78;5093757;28;20028;-54
2022/01/05 06:58:23;;;;;;;15.60;1.42;;;;;;;9.94;49.31;100291.34;5075355;28;20497;-54
2022/01/05 07:00:48;;;;;;;5.68;1.40;;;;;;;10.01;48.21;100301.50;5093689;28;20046;-55
2022/01/05 07:03:14;;;;;;;10.68;1.55;;;;;;;9.99;48.76;100292.78;5075796;28;20028;-55
2022/01/05 07:05:39;;;;;;;8.75;1.73;;;;;;;9.97;49.02;100289.41;5075467;28;20032;-55
2022/01/05 07:08:05;;;;;;;3.60;1.60;;;;;;;10.00;48.66;100297.13;5093767;28;20032;-55
2022/01/05 07:10:31;;;;;;;6.07;1.63;;;;;;;10.00;47.96;100305.16;5093474;28;20062;-56
2022/01/05 07:12:56;;;;;;;7.00;1.80;;;;;;;9.97;48.68;100300.94;5093581;28;20032;-55
2022/01/05 07:15:21;;;;;;;16.38;1.73;;;;;;;9.99;48.40;100308.84;5075642;28;20503;-55
2022/01/05 07:17:47;;;;;;;15.95;1.73;;;;;;;9.99;48.78;100300.81;5075507;28;20054;-55
2022/01/05 07:20:13;;;;;;;7.32;1.55;;;;;;;9.99;48.65;100316.88;5093436;28;20055;-55
2022/01/05 07:22:39;;;;;;;4.13;1.40;;;;;;;9.97;48.80;100305.47;5093310;28;20028;-55
2022/01/05 07:25:05;;;;;;;5.47;1.70;;;;;;;9.98;48.58;100312.50;5093774;28;20028;-55
2022/01/05 07:27:30;;;;;;;10.52;1.83;;;;;;;9.99;48.67;100311.50;5058692;28;20039;-55
2022/01/05 07:29:56;;;;;;;3.60;1.50;;;;;;;9.99;48.83;100308.84;5077648;28;20028;-55
2022/01/05 07:32:21;;;;;;;3.83;1.23;;;;;;;10.01;49.00;100312.22;5097409;28;20038;-55
2022/01/05 07:34:47;;;;;;;8.40;1.17;;;;;;;10.01;48.86;100312.22;5097371;28;20024;-55
2022/01/05 07:37:12;;;;;;;7.38;1.58;;;;;;;10.00;49.00;100321.22;5097024;28;20031;-55
2022/01/05 07:39:38;;;;;;;5.90;1.48;;;;;;;9.96;48.71;100312.63;5096811;28;20503;-55
2022/01/05 07:42:04;;;;;;;4.53;1.23;;;;;;;10.03;48.79;100331.66;5096991;28;20036;-55
2022/01/05 07:44:29;;;;;;;10.80;1.85;;;;;;;10.04;48.88;100344.03;5096957;28;20434;-55
2022/01/05 07:46:55;;;;;;;10.50;1.63;;;;;;;10.05;48.90;100340.41;5098064;28;20036;-55
2022/01/05 07:49:20;;;;;;;12.45;2.33;;;;;;;10.05;48.85;100346.56;5081135;28;20068;-58
2022/01/05 07:51:46;;;;;;;6.53;1.67;;;;;;;10.08;48.71;100361.53;5098921;28;20063;-54
2022/01/05 07:54:11;;;;;;;8.75;1.42;;;;;;;10.10;48.97;100360.41;5098296;28;20039;-54
2022/01/05 07:56:37;;;;;;;10.48;2.60;;;;;;;10.12;48.72;100357.59;5098134;28;20060;-55
2022/01/05 07:59:03;;;;;;;8.55;1.40;;;;;;;10.11;49.14;100363.91;5098177;28;20482;-55
2022/01/05 08:01:28;;;;;;;4.65;1.73;;;;;;;10.12;49.01;100371.81;5079906;28;20055;-54
2022/01/05 08:03:54;;;;;;;4.57;1.52;;;;;;;10.15;48.81;100378.75;5079378;28;20393;-55
2022/01/05 08:06:19;;;;;;;8.45;1.67;;;;;;;10.17;48.77;100374.09;5097711;28;20051;-54
2022/01/05 08:08:45;;;;;;;5.50;1.30;;;;;;;10.19;48.82;100374.81;5097538;28;20081;-54
2022/01/05 08:11:11;;;;;;;5.55;1.50;;;;;;;10.16;48.99;100367.06;5097516;28;20020;-55
2022/01/05 08:13:37;;;;;;;5.70;1.60;;;;;;;10.20;48.59;100371.16;5097901;28;20103;-58
2022/01/05 08:16:02;;;;;;;5.75;1.02;;;;;;;10.21;48.96;100381.72;5097738;28;20039;-54
2022/01/05 08:18:28;;;;;;;4.75;1.23;;;;;;;10.23;48.17;100382.44;5097453;28;20035;-55
2022/01/05 08:20:54;;;;;;;7.82;1.73;;;;;;;10.25;48.62;100384.97;5079412;28;20035;-56
2022/01/05 08:23:21;;;;;;;13.05;1.95;;;;;;;10.28;48.73;100403.41;5097191;28;20032;-54
2022/01/05 08:25:48;;;;;;;5.75;1.92;;;;;;;10.30;48.99;100404.97;5097898;28;20032;-55
2022/01/05 08:28:15;;;;;;;8.40;1.38;;;;;;;10.34;48.84;100400.19;5098003;28;20057;-55
2022/01/05 08:30:40;;;;;;;10.15;1.45;;;;;;;10.30;48.53;100388.91;5096563;28;20115;-55
2022/01/05 08:33:07;;;;;;;13.57;2.10;;;;;;;10.33;49.38;100399.34;5096270;28;20434;-55
2022/01/05 08:35:33;;;;;;;4.03;1.88;;;;;;;10.33;48.78;100404.69;5095569;28;20032;-55
2022/01/05 08:37:59;;;;;;;4.32;1.83;;;;;;;10.36;48.74;100415.13;5095620;28;20056;-55
2022/01/05 08:40:26;;;;;;;3.55;1.20;;;;;;;10.37;48.91;100410.63;5095779;28;20040;-55
2022/01/05 08:42:53;;;;;;;7.13;1.58;;;;;;;10.36;48.73;100425.84;5077497;28;20070;-55
2022/01/05 08:45:19;;;;;;;11.93;1.67;;;;;;;10.44;48.92;100422.50;5095616;28;20522;-55
2022/01/05 08:47:47;;;;;;;8.10;2.10;;;;;;;10.47;49.62;100420.38;5095681;28;20031;-56
2022/01/05 08:50:18;;;;;;;6.32;1.50;;;;;;;10.47;49.25;100428.41;5095436;28;20406;-56
2022/01/05 08:52:44;;;;;;;5.13;1.42;;;;;;;10.49;49.29;100429.13;5095238;28;20027;-55
2022/01/05 08:55:10;;;;;;;7.53;1.25;;;;;;;10.54;48.75;100434.06;5095202;28;20027;-54
2022/01/05 08:57:36;;;;;;;15.38;1.50;;;;;;;10.58;48.96;100424.75;5095372;28;20107;-55
2022/01/05 09:00:04;;;;;;;10.38;1.60;;;;;;;10.58;48.80;100427.41;5076985;28;20016;-55
2022/01/05 09:02:29;;;;;;;12.80;1.85;;;;;;;10.63;48.75;100433.22;5060268;28;20519;-56
2022/01/05 09:04:55;;;;;;;11.55;1.60;;;;;;;10.65;48.99;100427.72;5095212;28;20118;-56
2022/01/05 09:07:20;;;;;;;3.08;1.90;;;;;;;10.69;48.74;100426.47;5095119;28;20059;-55
2022/01/05 09:09:45;;;;;;;4.60;1.55;;;;;;;10.69;48.77;100419.25;5077144;28;20168;-55
2022/01/05 09:12:12;;;;;;;3.08;1.67;;;;;;;10.68;48.51;100428.28;5076882;28;20111;-55
2022/01/05 09:14:39;;;;;;;9.43;2.22;;;;;;;10.68;48.90;100425.63;5094707;28;20464;-55
2022/01/05 09:17:06;;;;;;;4.82;1.70;;;;;;;10.69;48.91;100421.13;5095510;28;20028;-56
2022/01/05 09:19:33;;;;;;;5.53;1.83;;;;;;;10.70;48.77;100423.63;5094718;28;20533;-54
2022/01/05 09:21:58;;;;;;;11.80;1.92;;;;;;;10.73;48.49;100417.16;5094981;28;20080;-55
2022/01/05 09:24:25;;;;;;;7.50;1.77;;;;;;;10.76;48.84;100428.44;5076813;28;20387;-57
2022/01/05 09:26:51;;;;;;;14.50;1.88;;;;;;;10.80;48.86;100429.00;5094637;28;20034;-57
2022/01/05 09:29:17;;;;;;;7.22;1.77;;;;;;;10.82;48.88;100435.06;5076559;28;20493;-58
2022/01/05 09:31:43;;;;;;;11.43;2.60;;;;;;;10.87;48.91;100435.50;5094502;28;20048;-55
2022/01/05 09:34:09;;;;;;;12.73;1.55;;;;;;;10.95;48.95;100441.84;5094578;28;20020;-55
2022/01/05 09:36:39;;;;;;;5.13;1.92;;;;;;;10.90;49.29;100436.06;5094562;28;20032;-56
2022/01/05 09:41:59;;;;;;;5.70;1.70;;;;;;;11.01;48.63;100460.03;5094427;28;20046;-55
2022/01/05 09:44:31;;;;;;;12.77;1.85;;;;;;;10.97;49.09;100442.53;5094493;28;20024;-56
2022/01/05 09:47:11;;;;;;;4.80;1.60;;;;;;;11.05;48.95;100460.63;5094345;28;20034;-56
2022/01/05 09:49:38;;;;;;;8.43;2.22;;;;;;;11.06;48.84;100473.84;5094336;28;20024;-56
2022/01/05 09:52:09;;;;;;;7.47;1.75;;;;;;;11.07;48.82;100475.56;5075868;28;20481;-56
2022/01/05 09:54:42;;;;;;;7.30;1.67;;;;;;;11.08;48.74;100471.88;5094177;28;20034;-56
2022/01/05 09:57:08;;;;;;;8.65;2.17;;;;;;;11.11;48.96;100466.22;5076915;28;20032;-56
2022/01/05 09:59:35;;;;;;;7.45;1.85;;;;;;;11.16;48.84;100470.34;5076141;28;20047;-56
2022/01/05 10:02:01;;;;;;;8.90;1.90;;;;;;;11.19;48.64;100478.09;5094219;28;20028;-56
2022/01/05 10:04:27;;;;;;;9.95;2.13;;;;;;;11.26;49.22;100477.38;5094085;28;20027;-56
2022/01/05 10:06:53;;;;;;;6.13;2.00;;;;;;;11.31;48.40;100476.94;5076049;28;20032;-56
2022/01/05 10:09:19;;;;;;;9.85;1.85;;;;;;;11.35;48.49;100476.53;5093819;28;20024;-56
2022/01/05 10:11:44;;;;;;;8.52;1.90;;;;;;;11.40;48.57;100489.50;5093797;28;20028;-56
2022/01/05 10:14:12;;;;;;;11.05;1.65;;;;;;;11.45;48.23;100490.75;5075879;28;20023;-55
2022/01/05 10:16:39;;;;;;;7.15;2.03;;;;;;;11.56;49.42;100497.78;5094039;28;20571;-55
2022/01/05 10:19:05;;;;;;;4.93;2.10;;;;;;;11.63;48.48;100501.63;5093794;28;20145;-55
2022/01/05 10:21:41;;;;;;;7.07;1.70;;;;;;;11.72;48.81;100508.84;5093735;28;20032;-56
2022/01/05 10:24:06;;;;;;;6.55;2.25;;;;;;;11.86;48.58;100492.28;5093639;28;20028;-56
2022/01/05 10:26:38;;;;;;;7.50;1.83;;;;;;;12.05;48.17;100494.91;5092305;28;20069;-56
2022/01/05 10:29:20;;;;;;;7.97;2.38;;;;;;;12.20;48.32;100497.94;5093753;28;20024;-56
2022/01/05 10:31:52;;;;;;;11.10;1.77;;;;;;;12.28;47.83;100498.88;5094136;28;20047;-55
2022/01/05 10:34:21;;;;;;;11.38;2.60;;;;;;;12.34;48.14;100499.31;5093577;28;20024;-58
2022/01/05 10:36:52;;;;;;;6.47;1.75;;;;;;;12.28;47.86;100508.81;5093484;28;20518;-58
2022/01/05 10:39:20;;;;;;;9.52;1.60;;;;;;;12.24;47.92;100502.88;5093328;28;20454;-58
2022/01/05 10:41:46;;;;;;;4.88;1.45;;;;;;;12.19;48.44;100518.59;5093532;28;20038;-58
2022/01/05 10:44:19;;;;;;;6.55;1.48;;;;;;;12.08;48.90;100510.72;5093729;28;20034;-58
2022/01/05 10:46:46;;;;;;;7.60;1.42;;;;;;;12.06;49.14;100526.09;5093669;28;20021;-58
2022/01/05 10:49:41;;;;;;;3.78;1.20;;;;;;;12.02;48.79;100521.19;5093493;28;20120;-58
2022/01/05 10:52:28;;;;;;;4.90;1.48;;;;;;;12.01;49.22;100533.75;5062494;28;20042;-58
2022/01/05 10:55:13;;;;;;;4.70;1.50;;;;;;;12.02;48.96;100530.09;5093388;28;20150;-57
2022/01/05 10:57:54;;;;;;;7.32;1.95;;;;;;;12.01;48.82;100536.44;5093331;28;20415;-58
2022/01/05 11:00:30;;;;;;;10.18;1.77;;;;;;;12.05;48.07;100540.53;5093147;28;20055;-56
2022/01/05 11:02:55;;;;;;;6.88;1.67;;;;;;;12.03;49.05;100529.06;5075025;28;20028;-57
2022/01/05 11:05:20;;;;;;;12.35;2.10;;;;;;;12.07;48.12;100535.84;5078154;28;20055;-58
2022/01/05 11:07:47;;;;;;;12.18;2.80;;;;;;;12.09;48.19;100533.88;5097367;28;20111;-58
2022/01/05 11:10:17;;;;;;;6.60;1.98;;;;;;;12.17;48.94;100536.66;5096958;28;20028;-58
2022/01/05 11:12:45;;;;;;;8.82;1.92;;;;;;;12.28;48.32;100538.34;5079066;28;20024;-58
2022/01/05 11:15:18;;;;;;;5.22;1.90;;;;;;;12.30;48.98;100540.88;5079135;28;20024;-58
2022/01/05 11:18:11;;;;;;;9.05;1.83;;;;;;;12.30;48.19;100551.63;5097006;28;20024;-58
2022/01/05 11:21:01;;;;;;;9.50;1.63;;;;;;;12.23;48.95;100546.81;5096745;28;20034;-58
2022/01/05 11:23:27;;;;;;;8.55;2.40;;;;;;;12.18;49.17;100548.25;5096981;28;20502;-56
2022/01/05 11:25:55;;;;;;;10.27;2.33;;;;;;;12.16;49.31;100555.63;5097160;28;20081;-56